createdAt,value
2023-04-21T00:01:26.346Z,7.00
2023-04-21T00:03:55.649Z,7.00
2023-04-21T00:06:23.628Z,6.80
2023-04-21T00:08:50.864Z,6.90
2023-04-21T00:11:18.318Z,6.60
2023-04-21T00:13:45.399Z,6.70
2023-04-21T00:16:12.771Z,6.60
2023-04-21T00:18:39.729Z,6.40
2023-04-21T00:21:06.696Z,6.20
2023-04-21T00:23:33.680Z,6.30
2023-04-21T00:26:02.933Z,6.10
2023-04-21T00:28:30.305Z,6.20
2023-04-21T00:30:57.368Z,6.20
2023-04-21T00:33:24.400Z,6.20
2023-04-21T00:35:51.443Z,6.50
2023-04-21T00:38:18.394Z,6.60
2023-04-21T00:40:45.318Z,6.80
2023-04-21T00:43:12.282Z,6.80
2023-04-21T00:45:39.274Z,6.80
2023-04-21T00:48:06.442Z,7.00
2023-04-21T00:50:33.808Z,7.00
2023-04-21T00:53:01.132Z,7.00
2023-04-21T00:55:29.104Z,6.90
2023-04-21T00:57:56.757Z,6.80
2023-04-21T01:00:24.080Z,6.50
2023-04-21T01:02:51.288Z,6.40
2023-04-21T01:05:18.403Z,6.50
2023-04-21T01:07:46.038Z,6.50
2023-04-21T01:10:13.134Z,6.20
2023-04-21T01:12:47.341Z,5.90
2023-04-21T01:15:16.367Z,5.90
2023-04-21T01:17:43.858Z,6.00
2023-04-21T01:20:15.387Z,5.80
2023-04-21T01:22:44.722Z,5.60
2023-04-21T01:25:11.862Z,5.50
2023-04-21T01:27:38.980Z,5.60
2023-04-21T01:30:10.138Z,5.60
2023-04-21T01:32:37.367Z,5.40
2023-04-21T01:35:04.658Z,5.20
2023-04-21T01:37:34.058Z,5.10
2023-04-21T01:40:05.068Z,5.00
2023-04-21T01:42:33.896Z,5.00
2023-04-21T01:45:01.355Z,5.10
2023-04-21T01:47:28.302Z,5.00
2023-04-21T01:49:55.351Z,4.90
2023-04-21T01:52:22.363Z,5.20
2023-04-21T01:54:49.410Z,5.10
2023-04-21T01:57:17.915Z,5.20
2023-04-21T01:59:45.035Z,5.40
2023-04-21T02:02:12.197Z,5.10
2023-04-21T02:04:39.566Z,5.40
2023-04-21T02:07:06.761Z,5.50
2023-04-21T02:09:33.837Z,5.50
2023-04-21T02:12:02.038Z,5.30
2023-04-21T02:14:29.141Z,5.30
2023-04-21T02:16:56.474Z,5.30
2023-04-21T02:19:24.083Z,5.70
2023-04-21T02:21:51.056Z,5.70
2023-04-21T02:24:17.970Z,5.70
2023-04-21T02:26:44.944Z,5.60
2023-04-21T02:29:11.899Z,5.50
2023-04-21T02:31:54.341Z,5.50
2023-04-21T02:34:24.679Z,5.50
2023-04-21T02:36:51.629Z,5.70
2023-04-21T02:39:18.852Z,5.60
2023-04-21T02:41:45.971Z,5.60
2023-04-21T02:44:12.826Z,5.70
2023-04-21T02:46:43.245Z,5.80
2023-04-21T02:49:11.030Z,5.90
2023-04-21T02:51:38.246Z,5.90
2023-04-21T02:54:05.794Z,5.90
2023-04-21T02:56:34.752Z,5.80
2023-04-21T02:59:01.751Z,5.70
2023-04-21T03:01:28.743Z,5.40
2023-04-21T03:03:55.793Z,5.30
2023-04-21T03:06:22.813Z,5.40
2023-04-21T03:08:49.683Z,5.60
2023-04-21T03:11:16.614Z,5.60
2023-04-21T03:13:43.584Z,5.50
2023-04-21T03:16:10.577Z,5.50
2023-04-21T03:18:37.652Z,5.50
2023-04-21T03:21:04.611Z,5.40
2023-04-21T03:23:31.519Z,5.40
2023-04-21T03:25:58.407Z,5.30
2023-04-21T03:28:25.299Z,5.20
2023-04-21T03:30:52.242Z,5.00
2023-04-21T03:33:19.225Z,4.80
2023-04-21T03:35:46.130Z,4.80
2023-04-21T03:38:13.113Z,4.80
2023-04-21T03:40:39.960Z,4.90
2023-04-21T03:43:06.925Z,4.80
2023-04-21T03:45:36.110Z,4.80
2023-04-21T03:48:03.948Z,4.80
2023-04-21T03:50:31.233Z,4.70
2023-04-21T03:52:58.221Z,4.70
2023-04-21T03:55:25.172Z,4.70
2023-04-21T03:57:52.321Z,4.70
2023-04-21T04:00:19.312Z,4.70
2023-04-21T04:02:46.510Z,4.80
2023-04-21T04:05:13.678Z,4.80
2023-04-21T04:07:40.921Z,5.10
2023-04-21T04:10:08.033Z,5.00
2023-04-21T04:12:34.963Z,5.10
2023-04-21T04:15:02.804Z,5.20
2023-04-21T04:17:29.709Z,5.40
2023-04-21T04:19:56.701Z,5.50
2023-04-21T04:22:23.568Z,5.70
2023-04-21T04:24:51.437Z,5.80
2023-04-21T04:27:20.465Z,5.80
2023-04-21T04:29:49.400Z,6.00
2023-04-21T04:32:16.567Z,6.10
2023-04-21T04:34:43.491Z,6.30
2023-04-21T04:37:11.404Z,6.50
2023-04-21T04:39:38.551Z,6.60
2023-04-21T04:42:12.032Z,6.70
2023-04-21T04:44:41.597Z,6.90
2023-04-21T04:47:08.871Z,7.50
2023-04-21T04:49:36.023Z,8.20
2023-04-21T04:52:02.959Z,8.90
2023-04-21T04:54:29.926Z,9.10
2023-04-21T04:56:58.177Z,8.90
2023-04-21T04:59:25.169Z,8.80
2023-04-21T05:01:52.797Z,8.50
2023-04-21T05:04:20.589Z,8.40
2023-04-21T05:06:48.048Z,8.40
2023-04-21T05:09:15.001Z,8.30
2023-04-21T05:11:41.969Z,8.40
2023-04-21T05:14:08.847Z,8.40
2023-04-21T05:16:35.895Z,8.40
2023-04-21T05:19:03.608Z,8.50
2023-04-21T05:21:31.509Z,8.50
2023-04-21T05:23:59.475Z,8.60
2023-04-21T05:26:27.916Z,8.70
2023-04-21T05:28:59.023Z,8.80
2023-04-21T05:31:26.479Z,8.90
2023-04-21T05:33:53.828Z,9.00
2023-04-21T05:36:20.737Z,9.00
2023-04-21T05:38:47.936Z,9.00
2023-04-21T05:41:14.945Z,9.10
2023-04-21T05:43:42.200Z,9.10
2023-04-21T05:46:11.204Z,9.20
2023-04-21T05:48:38.398Z,9.30
2023-04-21T05:51:13.108Z,9.40
2023-04-21T05:53:40.817Z,9.40
2023-04-21T05:56:09.871Z,9.50
2023-04-21T05:58:37.638Z,9.40
2023-04-21T06:01:06.602Z,9.30
2023-04-21T06:03:34.781Z,9.30
2023-04-21T06:06:04.074Z,9.30
2023-04-21T06:08:31.277Z,9.40
2023-04-21T06:10:58.504Z,9.40
2023-04-21T06:13:27.289Z,9.40
2023-04-21T06:15:55.076Z,9.50
2023-04-21T06:18:22.355Z,9.50
2023-04-21T06:20:53.821Z,9.60
2023-04-21T06:23:21.443Z,9.70
2023-04-21T06:25:59.380Z,9.70
2023-04-21T06:28:26.375Z,9.70
2023-04-21T06:30:53.353Z,9.70
2023-04-21T06:33:20.276Z,9.80
2023-04-21T06:35:47.254Z,9.80
2023-04-21T06:38:14.161Z,9.70
2023-04-21T06:40:41.183Z,9.90
2023-04-21T06:43:08.676Z,10.00
2023-04-21T06:45:35.781Z,9.90
2023-04-21T06:48:02.887Z,10.10
2023-04-21T06:50:29.934Z,10.10
2023-04-21T06:52:56.969Z,10.10
2023-04-21T06:55:23.961Z,10.20
2023-04-21T06:57:50.826Z,10.10
2023-04-21T07:00:18.378Z,10.00
2023-04-21T07:02:45.555Z,10.00
2023-04-21T07:05:12.561Z,10.10
2023-04-21T07:07:39.462Z,10.20
2023-04-21T07:10:07.318Z,10.20
2023-04-21T07:12:34.294Z,10.20
2023-04-21T07:15:01.234Z,10.40
2023-04-21T07:17:28.191Z,10.60
2023-04-21T07:19:55.145Z,10.50
2023-04-21T07:22:22.263Z,10.50
2023-04-21T07:28:36.302Z,10.60
2023-04-21T07:31:03.781Z,10.80
2023-04-21T07:33:30.994Z,10.90
2023-04-21T07:35:58.189Z,10.90
2023-04-21T07:38:25.285Z,10.90
2023-04-21T07:40:52.210Z,10.90
2023-04-21T07:43:20.000Z,10.90
2023-04-21T07:45:46.949Z,10.90
2023-04-21T07:48:13.994Z,10.80
2023-04-21T07:50:41.508Z,10.70
2023-04-21T07:53:08.435Z,10.60
2023-04-21T07:55:37.225Z,10.60
2023-04-21T07:58:07.680Z,10.80
2023-04-21T08:00:34.684Z,10.70
2023-04-21T08:03:01.792Z,10.90
2023-04-21T08:05:33.303Z,10.80
2023-04-21T08:08:02.299Z,10.80
2023-04-21T08:10:29.452Z,10.60
2023-04-21T08:12:56.429Z,10.60
2023-04-21T08:15:23.442Z,10.70
2023-04-21T08:17:50.429Z,10.80
2023-04-21T08:20:17.582Z,10.70
2023-04-21T08:22:46.010Z,10.60
2023-04-21T08:25:14.872Z,10.70
2023-04-21T08:27:41.968Z,10.60
2023-04-21T08:30:10.321Z,10.50
2023-04-21T08:32:37.371Z,10.50
2023-04-21T08:35:04.765Z,10.50
2023-04-21T08:37:31.686Z,10.70
2023-04-21T08:39:58.613Z,10.60
2023-04-21T08:42:25.730Z,10.60
2023-04-21T08:44:52.751Z,10.60
2023-04-21T08:47:22.332Z,10.60
2023-04-21T08:49:51.240Z,10.60
2023-04-21T08:52:18.769Z,10.50
2023-04-21T08:54:47.867Z,10.70
2023-04-21T08:57:16.383Z,10.80
2023-04-21T08:59:44.634Z,10.80
2023-04-21T09:02:19.453Z,10.90
2023-04-21T09:04:48.904Z,11.00
2023-04-21T09:07:33.714Z,10.90
2023-04-21T09:10:01.414Z,10.90
2023-04-21T09:12:29.655Z,11.00
2023-04-21T09:15:01.162Z,11.00
2023-04-21T09:17:32.767Z,10.80
2023-04-21T09:20:15.612Z,10.90
2023-04-21T09:22:42.965Z,10.80
2023-04-21T09:25:09.908Z,10.90
2023-04-21T09:27:37.789Z,10.90
2023-04-21T09:30:07.410Z,11.00
2023-04-21T09:32:38.469Z,11.00
2023-04-21T09:35:12.871Z,10.90
2023-04-21T09:37:40.229Z,11.00
2023-04-21T09:40:07.877Z,10.80
2023-04-21T09:42:39.210Z,10.90
2023-04-21T09:45:28.857Z,11.00
2023-04-21T09:47:59.368Z,11.00
2023-04-21T09:51:01.854Z,11.00
2023-04-21T09:53:17.181Z,11.00
2023-04-21T09:55:49.423Z,10.90
2023-04-21T09:58:20.487Z,11.00
2023-04-21T10:00:47.773Z,11.10
2023-04-21T10:03:17.420Z,11.20
2023-04-21T10:05:44.628Z,11.10
2023-04-21T10:08:12.336Z,10.90
2023-04-21T10:10:39.962Z,11.10
2023-04-21T10:13:07.976Z,11.10
2023-04-21T10:15:38.637Z,11.20
2023-04-21T10:18:16.435Z,11.20
2023-04-21T10:20:54.899Z,11.20
2023-04-21T10:23:28.724Z,11.30
2023-04-21T10:26:06.939Z,11.20
2023-04-21T10:28:54.762Z,11.20
2023-04-21T10:31:36.377Z,11.40
2023-04-21T10:34:06.598Z,11.70
2023-04-21T10:36:50.241Z,11.80
2023-04-21T10:39:31.518Z,12.00
2023-04-21T10:42:19.825Z,12.00
2023-04-21T10:44:58.726Z,12.10
2023-04-21T10:47:26.327Z,12.40
2023-04-21T10:49:53.745Z,12.30
2023-04-21T10:52:22.201Z,12.30
2023-04-21T10:54:50.330Z,12.30
2023-04-21T10:57:21.240Z,12.50
2023-04-21T10:59:52.071Z,12.50
2023-04-21T11:02:19.636Z,12.60
2023-04-21T11:04:52.094Z,12.70
2023-04-21T11:07:21.794Z,12.70
2023-04-21T11:09:56.322Z,12.70
2023-04-21T11:12:26.392Z,13.00
2023-04-21T11:14:53.544Z,13.00
2023-04-21T11:17:24.518Z,12.90
2023-04-21T11:19:55.420Z,13.00
2023-04-21T11:22:27.144Z,13.00
2023-04-21T11:24:57.062Z,13.00
2023-04-21T11:27:27.124Z,13.10
2023-04-21T11:29:54.090Z,12.70
2023-04-21T11:32:21.592Z,12.60
2023-04-21T11:34:48.818Z,12.70
2023-04-21T11:37:36.720Z,12.80
2023-04-21T11:40:06.362Z,12.40
2023-04-21T11:42:33.330Z,12.60
2023-04-21T11:45:00.833Z,12.40
2023-04-21T11:47:28.924Z,12.20
2023-04-21T11:49:57.185Z,12.40
2023-04-21T11:52:37.541Z,12.30
2023-04-21T11:55:15.505Z,12.20
2023-04-21T11:57:43.054Z,12.40
2023-04-21T12:00:11.994Z,12.30
2023-04-21T12:02:39.900Z,12.30
2023-04-21T12:05:11.938Z,12.20
2023-04-21T12:07:48.098Z,12.20
2023-04-21T12:10:18.293Z,12.30
2023-04-21T12:12:46.295Z,12.20
2023-04-21T12:15:20.501Z,12.20
2023-04-21T12:17:54.585Z,12.30
2023-04-21T12:20:26.600Z,12.30
2023-04-21T12:22:53.641Z,12.20
2023-04-21T12:25:20.668Z,12.40
2023-04-21T12:27:59.540Z,12.40
2023-04-21T12:30:26.467Z,12.60
2023-04-21T12:32:55.881Z,12.70
2023-04-21T12:35:23.817Z,13.00
2023-04-21T12:37:51.132Z,12.70
2023-04-21T12:40:18.595Z,12.40
2023-04-21T12:42:45.486Z,12.30
2023-04-21T12:45:13.558Z,12.20
2023-04-21T12:47:42.985Z,12.20
2023-04-21T12:50:12.689Z,12.10
2023-04-21T12:52:39.846Z,11.90
2023-04-21T12:55:06.902Z,11.70
2023-04-21T12:57:34.184Z,11.60
2023-04-21T13:00:01.270Z,11.60
2023-04-21T13:02:28.809Z,11.50
2023-04-21T13:04:55.816Z,11.40
2023-04-21T13:07:26.896Z,11.50
2023-04-21T13:09:53.947Z,11.70
2023-04-21T13:12:20.897Z,11.80
2023-04-21T13:14:47.818Z,11.70
2023-04-21T13:17:16.382Z,11.70
2023-04-21T13:19:43.370Z,11.70
2023-04-21T13:22:10.396Z,11.60
2023-04-21T13:24:37.484Z,11.60
2023-04-21T13:27:04.506Z,11.70
2023-04-21T13:29:34.557Z,11.70
2023-04-21T13:32:02.617Z,11.60
2023-04-21T13:34:31.142Z,11.70
2023-04-21T13:36:58.195Z,11.80
2023-04-21T13:39:25.396Z,11.80
2023-04-21T13:41:54.279Z,11.80
2023-04-21T13:44:21.765Z,11.90
2023-04-21T13:46:48.854Z,11.90
2023-04-21T13:52:56.635Z,11.90
2023-04-21T13:55:23.671Z,11.70
2023-04-21T13:57:50.734Z,11.90
2023-04-21T14:00:18.112Z,12.10
2023-04-21T14:02:45.241Z,12.10
2023-04-21T14:05:13.322Z,12.30
2023-04-21T14:07:40.358Z,12.40
2023-04-21T14:10:07.837Z,12.60
2023-04-21T14:12:34.792Z,12.90
2023-04-21T14:15:01.780Z,13.50
2023-04-21T14:17:28.827Z,13.80
2023-04-21T14:19:55.763Z,14.60
2023-04-21T14:22:22.831Z,15.10
2023-04-21T14:24:50.033Z,15.70
2023-04-21T14:27:17.070Z,16.20
2023-04-21T14:29:44.052Z,16.20
2023-04-21T14:32:11.041Z,16.40
2023-04-21T14:34:38.068Z,16.30
2023-04-21T14:40:55.611Z,16.30
2023-04-21T14:43:22.935Z,16.60
2023-04-21T14:45:50.348Z,17.00
2023-04-21T14:48:17.650Z,17.10
2023-04-21T14:50:44.829Z,16.60
2023-04-21T14:53:11.855Z,15.80
2023-04-21T14:55:38.961Z,15.40
2023-04-21T14:58:08.264Z,15.00
2023-04-21T15:00:36.594Z,14.70
2023-04-21T15:03:03.708Z,14.40
2023-04-21T15:05:31.188Z,14.30
2023-04-21T15:07:58.157Z,14.40
2023-04-21T15:10:25.307Z,14.40
2023-04-21T15:12:52.404Z,14.40
2023-04-21T15:15:19.585Z,14.80
2023-04-21T15:17:46.564Z,14.90
2023-04-21T15:20:13.667Z,15.20
2023-04-21T15:22:41.272Z,15.30
2023-04-21T15:25:08.776Z,15.20
2023-04-21T15:27:36.996Z,15.40
2023-04-21T15:30:05.247Z,15.70
2023-04-21T15:32:32.361Z,15.90
2023-04-21T15:34:59.382Z,16.00
2023-04-21T15:37:26.336Z,16.10
2023-04-21T15:39:53.349Z,16.40
2023-04-21T15:42:20.824Z,16.20
2023-04-21T15:44:47.875Z,16.00
2023-04-21T15:47:17.179Z,15.70
2023-04-21T15:49:44.171Z,15.70
2023-04-21T15:52:11.353Z,15.50
2023-04-21T15:54:38.575Z,15.40
2023-04-21T15:57:06.107Z,15.20
2023-04-21T15:59:33.091Z,15.50
2023-04-21T16:02:00.264Z,15.40
2023-04-21T16:04:27.368Z,15.90
2023-04-21T16:06:54.615Z,16.00
2023-04-21T16:09:21.771Z,15.50
2023-04-21T16:11:50.404Z,15.10
2023-04-21T16:14:18.080Z,14.70
2023-04-21T16:16:45.943Z,14.60
2023-04-21T16:19:13.051Z,14.50
2023-04-21T16:21:41.002Z,14.60
2023-04-21T16:24:08.791Z,14.70
2023-04-21T16:26:36.650Z,14.30
2023-04-21T16:29:04.047Z,14.40
2023-04-21T16:31:31.742Z,14.50
2023-04-21T16:34:00.349Z,14.00
2023-04-21T16:36:32.487Z,14.00
2023-04-21T16:38:59.773Z,13.80
2023-04-21T16:41:26.814Z,13.60
2023-04-21T16:43:53.837Z,13.40
2023-04-21T16:46:20.989Z,13.10
2023-04-21T16:48:48.256Z,12.90
2023-04-21T16:51:15.255Z,12.50
2023-04-21T16:53:42.755Z,12.00
2023-04-21T16:56:10.192Z,11.70
2023-04-21T16:58:37.787Z,11.40
2023-04-21T17:01:05.235Z,11.10
2023-04-21T17:03:32.577Z,10.80
2023-04-21T17:05:59.885Z,10.60
2023-04-21T17:08:26.835Z,10.50
2023-04-21T17:10:55.689Z,10.30
2023-04-21T17:13:22.628Z,10.20
2023-04-21T17:15:49.554Z,10.10
2023-04-21T17:18:16.521Z,10.10
2023-04-21T17:20:43.744Z,10.00
2023-04-21T17:23:10.765Z,9.90
2023-04-21T17:25:40.984Z,9.90
2023-04-21T17:28:07.976Z,9.80
2023-04-21T17:30:36.031Z,9.80
2023-04-21T17:33:15.244Z,9.70
2023-04-21T17:35:55.774Z,9.70
2023-04-21T17:38:30.384Z,9.60
2023-04-21T17:40:57.327Z,9.60
2023-04-21T17:43:24.524Z,9.50
2023-04-21T17:45:52.580Z,9.50
2023-04-21T17:48:20.220Z,9.50
2023-04-21T17:50:47.246Z,9.40
2023-04-21T17:53:14.141Z,9.30
2023-04-21T17:55:41.246Z,9.30
2023-04-21T17:58:10.849Z,9.20
2023-04-21T18:00:39.129Z,9.20
2023-04-21T18:03:06.287Z,9.00
2023-04-21T18:05:34.160Z,8.90
2023-04-21T18:08:01.507Z,8.80
2023-04-21T18:10:29.765Z,8.70
2023-04-21T18:12:57.424Z,8.60
2023-04-21T18:15:25.017Z,8.40
2023-04-21T18:17:53.390Z,8.40
2023-04-21T18:20:20.766Z,8.30
2023-04-21T18:22:49.071Z,8.30
2023-04-21T18:25:20.150Z,8.20
2023-04-21T18:27:51.496Z,8.20
2023-04-21T18:30:18.485Z,8.10
2023-04-21T18:32:45.618Z,8.10
2023-04-21T18:35:12.712Z,8.00
2023-04-21T18:37:39.654Z,7.90
2023-04-21T18:40:07.428Z,7.80
2023-04-21T18:42:34.487Z,7.80
2023-04-21T18:45:04.222Z,7.80
2023-04-21T18:47:31.917Z,7.70
2023-04-21T18:49:58.898Z,7.70
2023-04-21T18:52:25.910Z,7.70
2023-04-21T18:54:52.846Z,7.60
2023-04-21T18:57:19.809Z,7.50
2023-04-21T18:59:46.783Z,7.50
2023-04-21T19:02:14.326Z,7.50
2023-04-21T19:04:43.951Z,7.50
2023-04-21T19:07:11.560Z,7.40
2023-04-21T19:09:38.888Z,7.30
2023-04-21T19:12:05.852Z,7.20
2023-04-21T19:14:39.723Z,7.20
2023-04-21T19:17:13.471Z,7.20
2023-04-21T19:19:41.364Z,7.10
2023-04-21T19:22:08.363Z,7.00
2023-04-21T19:24:36.255Z,7.00
2023-04-21T19:27:05.485Z,6.90
2023-04-21T19:29:33.183Z,6.90
2023-04-21T19:32:00.517Z,6.90
2023-04-21T19:34:27.599Z,6.80
2023-04-21T19:36:54.598Z,6.70
2023-04-21T19:39:21.729Z,6.50
2023-04-21T19:41:48.700Z,6.50
2023-04-21T19:44:15.668Z,6.50
2023-04-21T19:46:43.221Z,6.50
2023-04-21T19:49:14.209Z,6.50
2023-04-21T19:51:41.486Z,6.40
2023-04-21T19:54:12.002Z,6.20
2023-04-21T19:56:40.358Z,6.10
2023-04-21T19:59:07.873Z,6.00
2023-04-21T20:01:34.895Z,6.10
2023-04-21T20:04:02.529Z,6.00
2023-04-21T20:06:29.670Z,6.00
2023-04-21T20:08:57.059Z,6.10
2023-04-21T20:11:25.132Z,5.90
2023-04-21T20:13:53.147Z,6.00
2023-04-21T20:16:20.290Z,6.00
2023-04-21T20:18:47.378Z,6.10
2023-04-21T20:21:14.366Z,6.10
2023-04-21T20:23:41.416Z,6.10
2023-04-21T20:26:08.307Z,6.00
2023-04-21T20:28:35.337Z,6.00
2023-04-21T20:31:02.611Z,5.90
2023-04-21T20:33:29.642Z,5.80
2023-04-21T20:35:57.054Z,5.60
2023-04-21T20:38:24.786Z,5.50
2023-04-21T20:40:53.880Z,5.30
2023-04-21T20:43:21.520Z,5.30
2023-04-21T20:45:48.810Z,5.30
2023-04-21T20:48:15.870Z,5.20
2023-04-21T20:50:44.083Z,5.10
2023-04-21T20:53:12.699Z,5.00
2023-04-21T20:55:39.764Z,4.90
2023-04-21T20:58:06.781Z,4.80
2023-04-21T21:00:34.871Z,4.80
2023-04-21T21:03:02.278Z,4.80
2023-04-21T21:05:30.533Z,5.00
2023-04-21T21:07:57.682Z,4.80
2023-04-21T21:10:24.714Z,4.80
2023-04-21T21:12:52.243Z,4.90
2023-04-21T21:15:19.214Z,4.80
2023-04-21T21:17:46.599Z,4.70
2023-04-21T21:20:13.579Z,4.60
2023-04-21T21:22:40.548Z,4.60
2023-04-21T21:25:07.881Z,4.80
2023-04-21T21:27:35.048Z,5.10
2023-04-21T21:30:02.005Z,5.30
2023-04-21T21:32:29.001Z,5.40
2023-04-21T21:34:56.044Z,5.30
2023-04-21T21:37:24.531Z,5.30
2023-04-21T21:39:52.708Z,5.30
2023-04-21T21:42:20.130Z,5.10
2023-04-21T21:44:47.079Z,5.00
2023-04-21T21:47:14.024Z,4.80
2023-04-21T21:49:41.191Z,4.70
2023-04-21T21:52:08.247Z,4.50
2023-04-21T21:54:35.341Z,4.50
2023-04-21T21:57:02.575Z,4.50
2023-04-21T21:59:29.571Z,4.50
2023-04-21T22:01:56.668Z,4.30
2023-04-21T22:04:23.834Z,4.40
2023-04-21T22:06:50.833Z,4.30
2023-04-21T22:09:17.790Z,4.20
2023-04-21T22:11:44.756Z,4.10
2023-04-21T22:14:21.977Z,4.10
2023-04-21T22:16:50.764Z,4.00
2023-04-21T22:19:20.707Z,3.90
2023-04-21T22:21:48.118Z,3.80
2023-04-21T22:24:15.279Z,3.70
2023-04-21T22:26:43.184Z,3.70
2023-04-21T22:29:10.334Z,3.60
2023-04-21T22:31:38.259Z,3.60
2023-04-21T22:34:05.591Z,3.60
2023-04-21T22:36:32.809Z,3.60
2023-04-21T22:38:59.794Z,3.60
2023-04-21T22:41:27.684Z,3.50
2023-04-21T22:43:54.937Z,3.50
2023-04-21T22:46:21.929Z,3.40
2023-04-21T22:48:51.250Z,3.40
2023-04-21T22:51:21.255Z,3.40
2023-04-21T22:53:48.234Z,3.40
2023-04-21T22:56:15.514Z,3.40
2023-04-21T22:58:43.444Z,3.50
2023-04-21T23:01:10.465Z,3.40
2023-04-21T23:03:37.496Z,3.30
2023-04-21T23:06:04.621Z,3.30
2023-04-21T23:08:31.490Z,3.20
2023-04-21T23:10:58.541Z,3.20
2023-04-21T23:13:25.848Z,3.20
2023-04-21T23:15:52.822Z,3.20
2023-04-21T23:18:20.044Z,3.30
2023-04-21T23:20:47.140Z,3.30
2023-04-21T23:23:14.690Z,3.30
2023-04-21T23:25:41.591Z,3.30
2023-04-21T23:28:08.539Z,3.20
2023-04-21T23:30:35.601Z,3.10
2023-04-21T23:33:02.950Z,3.00
2023-04-21T23:35:30.276Z,3.00
2023-04-21T23:37:57.414Z,2.90
2023-04-21T23:40:24.337Z,2.90
2023-04-21T23:42:51.389Z,2.90
2023-04-21T23:45:18.336Z,2.90
2023-04-21T23:47:45.926Z,2.90
2023-04-21T23:50:12.954Z,2.90
2023-04-21T23:52:42.203Z,2.80
2023-04-21T23:55:11.963Z,2.80
2023-04-21T23:57:38.879Z,2.80
